Time;durP1;ratioP1;P1;durP2;ratioP2;P2;SDS_P1;SDS_P2;PMS_P1;PMS_P2;Temp;Humidity;BMP_temperature;BMP_pressure;BME280_temperature;BME280_humidity;BME280_pressure;Samples;Min_cycle;Max_cycle;Signal;HPM_P1;HPM_P2
2024/01/28 00:00:54;;;;;;;2.70;1.65;;;;;;;;;;5006203;28;20195;-89
2024/01/28 00:03:22;;;;;;;1.20;1.10;;;;;;;;;;5005835;28;20215;-89
2024/01/28 00:05:51;;;;;;;2.05;1.33;;;;;;;;;;4979810;28;20785;-89
2024/01/28 00:08:18;;;;;;;2.22;1.45;;;;;;;;;;4998588;28;20203;-90
2024/01/28 00:10:47;;;;;;;0.90;0.90;;;;;;;;;;4986629;28;20215;-89
2024/01/28 00:13:18;;;;;;;2.08;1.52;;;;;;;;;;5002474;28;20203;-91
2024/01/28 00:15:48;;;;;;;1.90;1.60;;;;;;;;;;4999233;28;20190;-90
2024/01/28 00:18:20;;;;;;;1.17;1.10;;;;;;;;;;4998115;28;20303;-90
2024/01/28 00:20:46;;;;;;;6.03;1.20;;;;;;;;;;5004496;28;20190;-91
2024/01/28 00:23:15;;;;;;;6.50;1.38;;;;;;;;;;5003039;28;20203;-90
2024/01/28 00:25:41;;;;;;;1.55;1.45;;;;;;;;;;5001202;28;20184;-90
2024/01/28 00:28:07;;;;;;;4.82;1.33;;;;;;;;;;4986449;28;20218;-89
2024/01/28 00:30:35;;;;;;;3.85;1.35;;;;;;;;;;5008335;28;20267;-90
2024/01/28 00:33:01;;;;;;;2.90;1.75;;;;;;;;;;5004224;28;20203;-89
2024/01/28 00:35:29;;;;;;;1.77;1.05;;;;;;;;;;5005272;28;20186;-90
2024/01/28 00:37:59;;;;;;;21.40;2.28;;;;;;;;;;5006079;28;20210;-89
2024/01/28 00:40:25;;;;;;;3.97;1.48;;;;;;;;;;5005847;28;20195;-89
2024/01/28 00:42:51;;;;;;;2.50;1.95;;;;;;;;;;5006651;28;20206;-90
2024/01/28 00:45:17;;;;;;;1.92;1.48;;;;;;;;;;5003464;28;20183;-89
2024/01/28 00:47:44;;;;;;;1.65;1.55;;;;;;;;;;5006844;28;20206;-90
2024/01/28 00:50:10;;;;;;;2.42;2.17;;;;;;;;;;4989848;28;20187;-90
2024/01/28 00:52:44;;;;;;;2.22;1.40;;;;;;;;;;5005634;28;20230;-89
2024/01/28 00:55:10;;;;;;;1.35;1.25;;;;;;;;;;4989645;28;20217;-90
2024/01/28 00:57:36;;;;;;;2.33;1.48;;;;;;;;;;5004926;28;20211;-90
2024/01/28 01:00:03;;;;;;;1.73;1.40;;;;;;;;;;4985041;28;20198;-89
2024/01/28 01:02:29;;;;;;;2.33;2.17;;;;;;;;;;4982453;28;20210;-90
2024/01/28 01:04:55;;;;;;;9.10;1.17;;;;;;;;;;5000110;28;20198;-90
2024/01/28 01:07:21;;;;;;;3.43;2.37;;;;;;;;;;4985931;28;20206;-90
2024/01/28 01:09:47;;;;;;;2.92;2.28;;;;;;;;;;4990585;28;20557;-89
2024/01/28 01:12:13;;;;;;;2.20;1.73;;;;;;;;;;5002808;28;20210;-90
2024/01/28 01:14:39;;;;;;;4.63;1.70;;;;;;;;;;4998203;28;20446;-90
2024/01/28 01:17:05;;;;;;;9.43;1.20;;;;;;;;;;5002545;28;20431;-89
2024/01/28 01:19:31;;;;;;;2.95;1.85;;;;;;;;;;5002517;28;20434;-90
2024/01/28 01:21:57;;;;;;;1.85;1.65;;;;;;;;;;5000857;28;20179;-89
2024/01/28 01:24:24;;;;;;;3.05;2.28;;;;;;;;;;4999969;28;20242;-90
2024/01/28 01:26:51;;;;;;;1.13;1.08;;;;;;;;;;5004068;28;20175;-91
2024/01/28 01:29:17;;;;;;;2.03;1.42;;;;;;;;;;5003696;28;20187;-89
2024/01/28 01:31:43;;;;;;;5.70;2.00;;;;;;;;;;5003186;28;20190;-89
2024/01/28 01:34:09;;;;;;;3.80;2.25;;;;;;;;;;5003754;28;20241;-89
2024/01/28 01:36:34;;;;;;;6.03;3.00;;;;;;;;;;4983314;28;20210;-90
2024/01/28 01:39:01;;;;;;;4.30;3.53;;;;;;;;;;5001227;28;20500;-90
2024/01/28 01:41:28;;;;;;;6.30;2.65;;;;;;;;;;4987245;28;20434;-90
2024/01/28 01:43:54;;;;;;;3.17;2.88;;;;;;;;;;5000987;28;20214;-89
2024/01/28 01:46:20;;;;;;;3.55;3.25;;;;;;;;;;4998794;28;20210;-90
2024/01/28 01:48:46;;;;;;;9.48;2.10;;;;;;;;;;4985170;28;20323;-90
2024/01/28 01:51:13;;;;;;;9.93;0.88;;;;;;;;;;4999871;28;20885;-90
2024/01/28 01:53:45;;;;;;;3.20;1.15;;;;;;;;;;5000625;28;20207;-90
2024/01/28 01:56:15;;;;;;;0.98;0.93;;;;;;;;;;5003338;28;20198;-90
2024/01/28 01:58:42;;;;;;;8.30;3.15;;;;;;;;;;4985671;28;20209;-89
2024/01/28 02:01:08;;;;;;;5.18;1.95;;;;;;;;;;5002865;28;20171;-90
2024/01/28 02:03:34;;;;;;;3.42;2.25;;;;;;;;;;5003394;28;20236;-89
2024/01/28 02:06:00;;;;;;;1.73;0.82;;;;;;;;;;5003608;28;20187;-90
2024/01/28 02:08:26;;;;;;;1.58;1.48;;;;;;;;;;5003533;28;20186;-91
2024/01/28 02:11:02;;;;;;;1.77;1.67;;;;;;;;;;5000138;28;20589;-90
2024/01/28 02:13:28;;;;;;;1.38;1.27;;;;;;;;;;5000848;28;20222;-91
2024/01/28 02:15:54;;;;;;;3.90;1.88;;;;;;;;;;4984610;28;20191;-90
2024/01/28 02:18:20;;;;;;;1.88;1.77;;;;;;;;;;5000329;28;21329;-90
2024/01/28 02:20:46;;;;;;;1.90;1.20;;;;;;;;;;4996431;28;20317;-90
2024/01/28 02:23:17;;;;;;;2.30;1.40;;;;;;;;;;5000674;28;20296;-89
2024/01/28 02:25:43;;;;;;;1.30;0.95;;;;;;;;;;5007548;28;20251;-90
2024/01/28 02:28:09;;;;;;;1.50;1.37;;;;;;;;;;4992375;28;20757;-90
2024/01/28 02:30:35;;;;;;;2.22;1.27;;;;;;;;;;4999999;28;21004;-89
2024/01/28 02:33:01;;;;;;;2.65;1.45;;;;;;;;;;4997667;28;20293;-89
2024/01/28 02:35:27;;;;;;;6.43;2.20;;;;;;;;;;4996371;28;20183;-91
2024/01/28 02:37:53;;;;;;;2.93;2.20;;;;;;;;;;4997573;28;20234;-89
2024/01/28 02:40:20;;;;;;;1.17;1.07;;;;;;;;;;4994394;28;20464;-90
2024/01/28 02:42:46;;;;;;;4.68;2.15;;;;;;;;;;4977792;28;20470;-89
2024/01/28 02:45:12;;;;;;;2.08;1.83;;;;;;;;;;4998265;28;20189;-90
2024/01/28 02:47:38;;;;;;;1.50;1.07;;;;;;;;;;4982120;28;20258;-90
2024/01/28 02:50:04;;;;;;;2.10;1.77;;;-0.40;99.90;;;;;;4998757;28;20430;-88
2024/01/28 02:52:30;;;;;;;5.50;2.28;;;-0.70;99.90;;;;;;4987516;28;20438;-90
2024/01/28 02:54:56;;;;;;;1.30;1.20;;;;;;;;;;4981823;28;20191;-90
2024/01/28 02:57:22;;;;;;;2.30;1.50;;;;;;;;;;5002857;28;20286;-90
2024/01/28 02:59:48;;;;;;;1.33;1.23;;;;;;;;;;5005068;28;20248;-89
2024/01/28 03:02:20;;;;;;;3.47;2.22;;;;;;;;;;4988443;28;20250;-89
2024/01/28 03:04:47;;;;;;;13.15;2.08;;;;;;;;;;5005580;28;20203;-89
2024/01/28 03:07:18;;;;;;;3.13;1.70;;;;;;;;;;4992503;28;20214;-90
2024/01/28 03:09:44;;;;;;;3.80;1.70;;;;;;;;;;5005324;28;20260;-89
2024/01/28 03:12:11;;;;;;;2.72;1.35;;;;;;;;;;5005928;28;20196;-89
2024/01/28 03:14:37;;;;;;;2.80;1.15;;;;;;;;;;5004699;28;20215;-89
2024/01/28 03:17:06;;;;;;;2.28;2.08;;;;;;;;;;5003109;28;20186;-90
2024/01/28 03:19:34;;;;;;;6.82;2.13;;;;;;;;;;5007637;28;20179;-89
2024/01/28 03:22:00;;;;;;;10.02;3.13;;;;;;;;;;5003183;28;20190;-89
2024/01/28 03:24:26;;;;;;;4.35;2.22;;;;;;;;;;5003231;28;20211;-90
2024/01/28 03:26:55;;;;;;;10.00;2.92;;;;;;;;;;5002359;28;20246;-90
2024/01/28 03:29:23;;;;;;;2.83;2.53;;;;;;;;;;4989365;28;20178;-89
2024/01/28 03:31:49;;;;;;;2.33;1.75;;;;;;;;;;5003960;28;20182;-89
2024/01/28 03:34:15;;;;;;;3.30;2.25;;;;;;;;;;5006105;28;20207;-89
2024/01/28 03:36:41;;;;;;;3.50;2.17;;;;;;;;;;5004730;28;20179;-89
2024/01/28 03:39:08;;;;;;;2.38;2.28;;;;;;;;;;5012752;28;20254;-90
2024/01/28 03:41:34;;;;;;;2.30;2.20;;;;;;;;;;5011039;28;20286;-90
2024/01/28 03:44:00;;;;;;;4.93;3.15;;;;;;;;;;5005768;28;20211;-90
2024/01/28 03:46:29;;;;;;;10.20;3.92;;;;;;;;;;5006094;28;20267;-89
2024/01/28 03:48:55;;;;;;;3.15;2.20;;;;;;;;;;5004403;28;20198;-89
2024/01/28 03:51:21;;;;;;;2.63;2.42;;;;;;;;;;4988340;28;20195;-89
2024/01/28 03:53:47;;;;;;;5.53;3.83;;;;;;;;;;4984764;28;20207;-89
2024/01/28 03:56:14;;;;;;;7.10;1.35;;;;;;;;;;5006269;28;20179;-89
2024/01/28 03:58:43;;;;;;;5.88;2.65;;;;;;;;;;5004524;28;20195;-88
2024/01/28 04:01:09;;;;;;;2.75;2.55;;;;;;;;;;5001885;28;20197;-89
2024/01/28 04:03:36;;;;;;;2.80;1.88;;;;;;;;;;4986979;28;20210;-89
2024/01/28 04:06:06;;;;;;;2.63;2.10;;;;;;;;;;5004950;28;20179;-89
2024/01/28 04:08:34;;;;;;;4.63;1.83;;;;;;;;;;5004727;28;20198;-88
2024/01/28 04:11:26;;;;;;;2.33;2.00;;;-1.20;99.90;;;;;;5006281;28;20221;-88
2024/01/28 04:13:53;;;;;;;1.45;1.10;;;;;;;;;;4990618;28;20214;-87
2024/01/28 04:16:20;;;;;;;0.90;0.90;;;;;;;;;;4993744;28;20206;-89
2024/01/28 04:18:54;;;;;;;2.28;1.77;;;;;;;;;;4997600;28;20195;-89
2024/01/28 04:21:31;;;;;;;13.00;4.65;;;;;;;;;;4994773;28;20173;-89
2024/01/28 04:24:05;;;;;;;2.78;2.22;;;;;;;;;;4990118;28;20233;-89
2024/01/28 04:26:31;;;;;;;3.10;1.55;;;;;;;;;;5006903;28;20179;-89
2024/01/28 04:29:04;;;;;;;3.75;1.73;;;;;;;;;;5012058;28;20186;-88
2024/01/28 04:31:32;;;;;;;2.28;2.08;;;;;;;;;;5009576;28;20198;-89
2024/01/28 04:34:01;;;;;;;2.13;2.03;;;;;;;;;;5008744;28;20213;-90
2024/01/28 04:36:32;;;;;;;2.25;1.92;;;;;;;;;;4996814;28;20210;-88
2024/01/28 04:38:59;;;;;;;3.70;2.58;;;;;;;;;;5006315;28;20195;-88
2024/01/28 04:41:25;;;;;;;6.88;3.60;;;;;;;;;;5003682;28;20194;-88
2024/01/28 04:43:51;;;;;;;2.03;1.83;;;;;;;;;;5000117;28;20207;-88
2024/01/28 04:46:17;;;;;;;13.88;4.00;;;;;;;;;;4998343;28;20305;-88
2024/01/28 04:48:45;;;;;;;3.70;1.70;;;;;;;;;;4989441;28;20237;-88
2024/01/28 04:51:12;;;;;;;10.98;3.97;;;;;;;;;;5000908;28;20191;-88
2024/01/28 04:53:38;;;;;;;5.07;2.30;;;;;;;;;;5015525;28;20233;-88
2024/01/28 04:56:04;;;;;;;6.90;2.30;;;;;;;;;;4995624;28;20286;-88
2024/01/28 04:58:30;;;;;;;2.13;1.92;;;;;;;;;;5003065;28;20211;-88
2024/01/28 05:00:56;;;;;;;5.88;2.83;;;;;;;;;;4997685;28;20382;-89
2024/01/28 05:03:22;;;;;;;3.33;2.38;;;;;;;;;;4986706;28;20207;-87
2024/01/28 05:05:48;;;;;;;4.57;2.63;;;;;;;;;;5000508;28;20198;-88
2024/01/28 05:08:14;;;;;;;5.40;4.10;;;;;;;;;;4997408;28;20191;-88
2024/01/28 05:10:40;;;;;;;6.30;4.27;;;;;;;;;;4977439;28;21717;-87
2024/01/28 05:13:06;;;;;;;14.53;2.90;;;;;;;;;;4996520;28;20461;-91
2024/01/28 05:15:32;;;;;;;2.75;2.50;;;;;;;;;;4998696;28;20449;-90
2024/01/28 05:17:58;;;;;;;7.82;3.10;;;-2.00;99.90;;;;;;4997638;28;20203;-90
2024/01/28 05:20:24;;;;;;;6.20;2.20;;;;;;;;;;5005666;28;20231;-90
2024/01/28 05:22:51;;;;;;;4.37;2.57;;;;;;;;;;5004623;28;20195;-88
2024/01/28 05:25:17;;;;;;;1.83;1.10;;;;;;;;;;5000044;28;20430;-90
2024/01/28 05:27:44;;;;;;;2.90;2.60;;;;;;;;;;4996688;28;22860;-91
2024/01/28 05:30:10;;;;;;;1.80;1.50;;;;;;;;;;4979995;28;20234;-90
2024/01/28 05:32:36;;;;;;;2.47;1.60;;;;;;;;;;4998954;28;20183;-90
2024/01/28 05:35:03;;;;;;;6.47;1.53;;;-2.10;99.90;;;;;;4994569;28;20183;-90
2024/01/28 05:37:30;;;;;;;7.93;2.53;;;;;;;;;;4995541;28;20481;-90
2024/01/28 05:39:56;;;;;;;4.78;3.00;;;-2.20;99.90;;;;;;4991240;28;20191;-88
2024/01/28 05:42:22;;;;;;;4.32;2.20;;;;;;;;;;4981649;28;20245;-88
2024/01/28 05:44:48;;;;;;;2.33;2.23;;;;;;;;;;4990671;28;20499;-90
2024/01/28 05:47:14;;;;;;;2.77;2.57;;;;;;;;;;4993634;28;20434;-90
2024/01/28 05:49:40;;;;;;;3.70;2.30;;;;;;;;;;4993709;28;20422;-88
2024/01/28 05:52:06;;;;;;;6.13;2.07;;;-2.10;99.90;;;;;;4988758;28;20462;-88
2024/01/28 05:54:32;;;;;;;2.57;1.97;;;-2.10;99.90;;;;;;4988960;28;20457;-88
2024/01/28 05:56:58;;;;;;;4.45;2.42;;;;;;;;;;4992570;28;20261;-88
2024/01/28 05:59:24;;;;;;;2.77;2.00;;;;;;;;;;4989871;28;20234;-89
2024/01/28 06:01:50;;;;;;;1.77;1.47;;;;;;;;;;4990702;28;20492;-88
2024/01/28 06:04:16;;;;;;;2.13;2.03;;;;;;;;;;4991172;28;20449;-88
2024/01/28 06:06:42;;;;;;;2.17;2.00;;;;;;;;;;4999778;28;20429;-88
2024/01/28 06:09:09;;;;;;;3.05;2.45;;;;;;;;;;5002610;28;20524;-88
2024/01/28 06:11:36;;;;;;;11.70;3.97;;;;;;;;;;4990409;28;20179;-87
2024/01/28 06:14:02;;;;;;;20.20;2.53;;;;;;;;;;4971578;28;20231;-87
2024/01/28 06:16:28;;;;;;;2.58;2.05;;;;;;;;;;4989025;28;20194;-90
2024/01/28 06:18:54;;;;;;;2.37;2.17;;;;;;;;;;4984281;28;20222;-87
2024/01/28 06:21:20;;;;;;;2.80;2.60;;;;;;;;;;4989092;28;20436;-87
2024/01/28 06:23:45;;;;;;;2.57;2.37;;;;;;;;;;4986371;28;20887;-87
2024/01/28 06:26:11;;;;;;;3.63;3.03;;;;;;;;;;4988459;28;20445;-90
2024/01/28 06:28:37;;;;;;;2.20;0.80;;;;;;;;;;4988703;28;20183;-90
2024/01/28 06:31:04;;;;;;;6.20;2.63;;;;;;;;;;4991816;28;20469;-87
2024/01/28 06:33:29;;;;;;;4.35;3.67;;;;;;;;;;4986529;28;20453;-87
2024/01/28 06:35:55;;;;;;;4.23;3.23;;;;;;;;;;4992916;28;20226;-87
2024/01/28 06:38:21;;;;;;;3.07;2.33;;;;;;;;;;4992236;28;20532;-87
2024/01/28 06:40:47;;;;;;;6.87;4.27;;;;;;;;;;4987470;28;20470;-88
2024/01/28 06:43:13;;;;;;;6.15;2.67;;;;;;;;;;4989331;28;20489;-91
2024/01/28 06:45:39;;;;;;;1.50;1.40;;;;;;;;;;4975627;28;20191;-88
2024/01/28 06:48:05;;;;;;;1.00;1.00;;;;;;;;;;4987195;28;20569;-88
2024/01/28 06:50:31;;;;;;;2.22;2.03;;;;;;;;;;4991187;28;20931;-88
2024/01/28 06:53:01;;;;;;;9.73;5.90;;;;;;;;;;4991433;28;20444;-86
2024/01/28 06:55:27;;;;;;;5.18;4.15;;;;;;;;;;4999862;28;20176;-90
2024/01/28 06:57:53;;;;;;;9.82;5.00;;;;;;;;;;4994677;28;20527;-88
2024/01/28 07:00:19;;;;;;;6.20;4.63;;;;;;;;;;4994315;28;20184;-91
2024/01/28 07:02:45;;;;;;;7.55;2.60;;;-1.80;99.90;;;;;;4991042;28;20434;-88
2024/01/28 07:05:11;;;;;;;3.08;2.88;;;;;;;;;;4988966;28;20182;-90
2024/01/28 07:07:38;;;;;;;8.15;2.97;;;-1.80;99.90;;;;;;4994403;28;20222;-87
2024/01/28 07:10:05;;;;;;;3.10;2.80;;;;;;;;;;4988735;28;20202;-87
2024/01/28 07:12:31;;;;;;;3.88;3.05;;;;;;;;;;4987673;28;20211;-88
2024/01/28 07:14:58;;;;;;;2.47;2.10;;;;;;;;;;4989764;28;20226;-88
2024/01/28 07:17:23;;;;;;;2.22;2.03;;;-1.50;99.90;;;;;;4989879;28;20241;-88
2024/01/28 07:19:49;;;;;;;3.90;3.03;;;-1.50;99.90;;;;;;4974659;28;20683;-87
2024/01/28 07:22:15;;;;;;;3.20;1.83;;;;;;;;;;4988854;28;20183;-87
2024/01/28 07:24:41;;;;;;;2.30;1.10;;;;;;;;;;4989427;28;20214;-89
2024/01/28 07:27:06;;;;;;;4.55;2.85;;;-1.30;99.90;;;;;;4969734;28;20238;-88
2024/01/28 07:29:32;;;;;;;2.77;2.60;;;;;;;;;;4978662;28;20195;-88
2024/01/28 07:31:58;;;;;;;2.40;1.60;;;;;;;;;;4978643;28;20213;-89
2024/01/28 07:34:23;;;;;;;1.30;1.20;;;-0.40;99.90;;;;;;4970259;28;20500;-88
2024/01/28 07:36:51;;;;;;;3.80;2.17;;;0.40;99.90;;;;;;4990245;28;20214;-88
2024/01/28 07:39:17;;;;;;;3.47;3.17;;;1.30;99.90;;;;;;4990834;28;20195;-87
2024/01/28 07:41:43;;;;;;;2.70;2.50;;;;;;;;;;4973246;28;20183;-89
2024/01/28 07:44:08;;;;;;;3.23;2.83;;;;;;;;;;4989066;28;20466;-89
2024/01/28 07:46:34;;;;;;;5.90;3.57;;;;;;;;;;4987196;28;20445;-89
2024/01/28 07:49:00;;;;;;;8.07;5.07;;;;;;;;;;4989976;28;20469;-89
2024/01/28 07:51:26;;;;;;;7.23;4.93;;;;;;;;;;4985378;28;20450;-90
2024/01/28 07:53:52;;;;;;;5.80;4.73;;;;;;;;;;4991625;28;20481;-88
2024/01/28 07:56:18;;;;;;;6.83;4.80;;;;;;;;;;4989927;28;20445;-88
2024/01/28 07:58:44;;;;;;;5.27;4.30;;;;;;;;;;4982705;28;20465;-88
2024/01/28 08:01:10;;;;;;;6.57;3.77;;;;;;;;;;4991746;28;20449;-88
2024/01/28 08:03:36;;;;;;;8.23;3.20;;;;;;;;;;4973868;28;20462;-87
2024/01/28 08:06:02;;;;;;;6.23;3.43;;;8.90;99.90;;;;;;4989240;28;20434;-88
2024/01/28 08:08:27;;;;;;;6.30;3.40;;;9.00;99.90;;;;;;4990221;28;20449;-87
2024/01/28 08:10:53;;;;;;;5.90;3.00;;;;;;;;;;4968127;28;20199;-88
2024/01/28 08:13:21;;;;;;;3.90;2.70;;;;;;;;;;4981970;28;20233;-88
2024/01/28 08:15:48;;;;;;;4.00;2.17;;;;;;;;;;4989268;28;20434;-88
2024/01/28 08:18:14;;;;;;;7.85;3.90;;;;;;;;;;4993687;28;20203;-88
2024/01/28 08:20:40;;;;;;;4.83;2.87;;;;;;;;;;4973770;28;20296;-88
2024/01/28 08:23:06;;;;;;;4.50;2.57;;;;;;;;;;4973510;28;20454;-88
2024/01/28 08:25:31;;;;;;;10.25;3.83;;;10.40;99.90;;;;;;4986862;28;20442;-89
2024/01/28 08:27:57;;;;;;;5.17;4.27;;;;;;;;;;4991595;28;20230;-88
2024/01/28 08:30:24;;;;;;;4.43;2.78;;;8.10;99.90;;;;;;4990784;28;20203;-88
2024/01/28 08:32:50;;;;;;;6.50;3.25;;;7.50;99.90;;;;;;4972345;28;20246;-88
2024/01/28 08:35:18;;;;;;;15.65;3.90;;;9.20;99.90;;;;;;4975662;28;20207;-88
2024/01/28 08:37:45;;;;;;;5.45;4.05;;;10.60;99.90;;;;;;4989309;28;20745;-88
2024/01/28 08:40:12;;;;;;;8.05;3.20;;;11.10;99.90;;;;;;4993116;28;20666;-89
2024/01/28 08:42:38;;;;;;;3.90;2.78;;;;;;;;;;4983014;28;20231;-88
2024/01/28 08:45:04;;;;;;;3.55;2.80;;;;;;;;;;4972643;28;20210;-88
2024/01/28 08:47:30;;;;;;;3.20;2.88;;;10.40;98.40;;;;;;4997908;28;20692;-90
2024/01/28 08:49:57;;;;;;;4.50;2.33;;;;;;;;;;4976058;28;20184;-90
2024/01/28 08:52:23;;;;;;;15.82;4.00;;;9.60;99.90;;;;;;4996319;28;20183;-91
2024/01/28 08:54:49;;;;;;;4.50;3.00;;;;;;;;;;4993350;28;20850;-90
2024/01/28 08:57:16;;;;;;;4.55;4.15;;;11.10;99.90;;;;;;4991173;28;20214;-90
2024/01/28 08:59:42;;;;;;;6.40;3.38;;;;;;;;;;4992970;28;20191;-87
2024/01/28 09:02:08;;;;;;;6.00;3.13;;;;;;;;;;5004785;28;20388;-89
2024/01/28 09:04:34;;;;;;;4.90;2.60;;;;;;;;;;5014112;28;20230;-89
2024/01/28 09:07:00;;;;;;;8.60;3.37;;;12.30;96.70;;;;;;5014777;28;20485;-90
2024/01/28 09:09:28;;;;;;;5.60;3.23;;;;;;;;;;5004989;28;20434;-89
2024/01/28 09:11:54;;;;;;;6.70;3.25;;;;;;;;;;5019152;28;20282;-89
2024/01/28 09:14:28;;;;;;;2.97;2.17;;;11.30;96.60;;;;;;5018435;28;20191;-90
2024/01/28 09:16:54;;;;;;;4.47;2.40;;;;;;;;;;5010670;28;20195;-88
2024/01/28 09:19:20;;;;;;;4.22;3.08;;;;;;;;;;5009092;28;20187;-91
2024/01/28 09:21:53;;;;;;;7.85;3.35;;;;;;;;;;5004509;28;20253;-91
2024/01/28 09:24:22;;;;;;;8.88;4.05;;;;;;;;;;5016028;28;20215;-90
2024/01/28 09:26:48;;;;;;;8.00;4.75;;;;;;;;;;4980300;28;20195;-90
2024/01/28 09:29:14;;;;;;;6.53;3.10;;;;;;;;;;5000802;28;20171;-90
2024/01/28 09:31:44;;;;;;;3.45;2.45;;;11.20;95.40;;;;;;4999508;28;20472;-90
2024/01/28 09:34:12;;;;;;;6.23;3.50;;;;;;;;;;5002578;28;20991;-87
2024/01/28 09:36:38;;;;;;;5.60;2.50;;;;;;;;;;5004463;28;20442;-89
2024/01/28 09:39:04;;;;;;;5.22;3.42;;;;;;;;;;5005071;28;20580;-90
2024/01/28 09:41:59;;;;;;;6.22;3.05;;;9.80;98.20;;;;;;4997582;28;20187;-90
2024/01/28 09:44:27;;;;;;;9.20;3.10;;;9.70;99.70;;;;;;4984769;28;20217;-89
2024/01/28 09:46:53;;;;;;;6.93;3.67;;;;;;;;;;5000527;28;20199;-88
2024/01/28 09:49:20;;;;;;;2.47;2.25;;;10.00;99.90;;;;;;5008051;28;20191;-89
2024/01/28 09:51:46;;;;;;;7.03;2.75;;;;;;;;;;4999722;28;20195;-89
2024/01/28 09:54:12;;;;;;;5.72;2.83;;;;;;;;;;4996379;28;20199;-90
2024/01/28 09:56:41;;;;;;;3.42;2.83;;;9.50;99.90;;;;;;4982755;28;20183;-90
2024/01/28 09:59:08;;;;;;;4.90;3.58;;;8.30;99.90;;;;;;4994762;28;20270;-89
2024/01/28 10:01:34;;;;;;;6.35;3.08;;;;;;;;;;4994130;28;20210;-89
2024/01/28 10:04:01;;;;;;;6.57;3.10;;;6.60;99.90;;;;;;4993146;28;20238;-88
2024/01/28 10:06:27;;;;;;;2.55;2.35;;;6.50;99.90;;;;;;4996907;28;20183;-89
2024/01/28 10:08:53;;;;;;;4.60;3.23;;;;;;;;;;4980646;28;21293;-90
2024/01/28 10:11:19;;;;;;;3.93;2.53;;;;;;;;;;4995418;28;20179;-89
2024/01/28 10:13:46;;;;;;;6.38;2.78;;;5.70;99.90;;;;;;4995459;28;20450;-90
2024/01/28 10:16:12;;;;;;;5.90;4.10;;;;;;;;;;4992940;28;20252;-91
2024/01/28 10:18:39;;;;;;;4.80;2.75;;;;;;;;;;4980506;28;20222;-89
2024/01/28 10:21:05;;;;;;;4.88;2.75;;;;;;;;;;5002234;28;20191;-89
2024/01/28 10:23:43;;;;;;;2.90;2.53;;;4.80;99.90;;;;;;5011120;28;20343;-89
2024/01/28 10:26:12;;;;;;;3.67;3.15;;;;;;;;;;5000556;28;20457;-90
2024/01/28 10:28:41;;;;;;;4.45;3.17;;;;;;;;;;5001162;28;20171;-91
2024/01/28 10:33:42;;;;;;;9.43;3.30;;;;;;;;;;5013294;28;20192;-86
2024/01/28 10:36:09;;;;;;;3.75;2.60;;;;;;;;;;5029004;28;20237;-86
2024/01/28 10:38:44;;;;;;;6.88;2.90;;;5.00;99.90;;;;;;5030003;28;20190;-86
2024/01/28 10:41:16;;;;;;;9.38;2.47;;;5.30;99.90;;;;;;5029384;28;20249;-85
2024/01/28 10:43:55;;;;;;;6.10;2.88;;;5.50;99.90;;;;;;4999818;28;20189;-86
2024/01/28 10:46:38;;;;;;;6.78;4.00;;;5.70;99.90;;;;;;5008297;23;20183;-90
2024/01/28 10:49:10;;;;;;;6.53;4.57;;;5.70;99.90;;;;;;5018718;28;20214;-90
2024/01/28 10:54:15;;;;;;;3.17;2.65;;;5.60;99.90;;;;;;4956463;28;20250;-79
2024/01/28 10:56:42;;;;;;;11.07;3.90;;;5.70;99.90;;;;;;4965308;28;20537;-81
2024/01/28 10:59:08;;;;;;;3.70;3.30;;;5.80;99.90;;;;;;4963041;28;20217;-81
2024/01/28 11:01:35;;;;;;;5.57;3.70;;;5.90;99.90;;;;;;4944631;28;20199;-83
2024/01/28 11:04:03;;;;;;;4.00;2.78;;;5.80;99.90;;;;;;4962255;28;20467;-77
2024/01/28 11:06:33;;;;;;;7.45;2.83;;;6.00;99.90;;;;;;4941810;28;20806;-81
2024/01/28 11:08:59;;;;;;;7.28;3.45;;;6.30;99.90;;;;;;4963014;28;20788;-82
2024/01/28 11:11:24;;;;;;;5.25;3.92;;;6.60;99.90;;;;;;4944228;28;20200;-81
2024/01/28 11:13:50;;;;;;;13.73;4.10;;;6.60;99.90;;;;;;4964376;28;20573;-83
2024/01/28 11:16:18;;;;;;;3.30;2.33;;;6.50;99.90;;;;;;4966161;28;20870;-80
2024/01/28 11:19:04;;;;;;;5.45;3.55;;;6.60;99.90;;;;;;4965505;28;20624;-81
2024/01/28 11:21:33;;;;;;;9.05;3.97;;;6.60;99.90;;;;;;4964377;28;20227;-80
2024/01/28 11:23:59;;;;;;;5.70;3.45;;;6.70;99.90;;;;;;4964927;28;20176;-83
2024/01/28 11:26:27;;;;;;;6.70;3.50;;;6.90;99.90;;;;;;4964648;28;20211;-81
2024/01/28 11:28:54;;;;;;;2.88;2.58;;;7.00;99.90;;;;;;4959900;28;20191;-81
2024/01/28 11:31:34;;;;;;;4.97;3.45;;;7.00;99.90;;;;;;4935490;28;20226;-82
2024/01/28 11:34:20;;;;;;;2.78;2.45;;;7.20;99.90;;;;;;4944290;28;20656;-80
2024/01/28 11:36:51;;;;;;;9.27;3.92;;;7.30;99.90;;;;;;4942287;28;20212;-82
2024/01/28 11:39:44;;;;;;;7.50;3.20;;;7.50;99.90;;;;;;4961592;28;20203;-81
2024/01/28 11:42:10;;;;;;;6.28;3.53;;;7.40;99.90;;;;;;4958791;28;20271;-80
2024/01/28 11:44:36;;;;;;;3.30;2.80;;;7.40;99.90;;;;;;4960737;28;20255;-81
2024/01/28 11:47:02;;;;;;;6.03;4.25;;;7.50;99.90;;;;;;4941735;28;20207;-82
2024/01/28 11:49:28;;;;;;;11.48;3.60;;;7.70;99.90;;;;;;4963267;28;20204;-79
2024/01/28 11:51:54;;;;;;;3.40;3.10;;;7.70;99.90;;;;;;4961592;28;20688;-85
2024/01/28 11:54:19;;;;;;;5.97;2.93;;;7.60;99.90;;;;;;4966847;28;20562;-83
2024/01/28 11:56:45;;;;;;;7.70;3.40;;;7.90;99.90;;;;;;4968729;28;20235;-83
2024/01/28 11:59:11;;;;;;;9.33;3.50;;;;;;;;;;4950637;28;20276;-79
2024/01/28 12:01:38;;;;;;;5.95;3.55;;;;;;;;;;4962806;28;21944;-83
2024/01/28 12:04:04;;;;;;;4.65;2.55;;;8.10;99.90;;;;;;4965876;28;20706;-84
2024/01/28 12:06:31;;;;;;;12.50;3.15;;;8.00;99.90;;;;;;4964255;28;20203;-82
2024/01/28 12:08:58;;;;;;;5.25;3.33;;;7.90;99.90;;;;;;4964929;28;20246;-79
2024/01/28 12:11:24;;;;;;;7.53;3.72;;;7.60;99.90;;;;;;4939346;28;20193;-81
2024/01/28 12:13:50;;;;;;;5.10;2.80;;;7.40;99.90;;;;;;4962733;28;20188;-78
2024/01/28 12:16:21;;;;;;;5.43;3.20;;;7.50;99.90;;;;;;4957110;28;20287;-82
2024/01/28 12:18:48;;;;;;;3.40;2.58;;;7.50;99.90;;;;;;4963578;28;20494;-82
2024/01/28 12:21:18;;;;;;;5.50;3.50;;;8.20;99.90;;;;;;4962881;28;20198;-82
2024/01/28 12:23:48;;;;;;;3.08;2.13;;;8.30;99.90;;;;;;4956161;28;20473;-82
2024/01/28 12:26:15;;;;;;;4.47;2.75;;;9.10;99.90;;;;;;4960829;28;20258;-83
2024/01/28 12:28:42;;;;;;;4.00;3.03;;;9.10;99.90;;;;;;4960365;28;20184;-80
2024/01/28 12:31:09;;;;;;;6.45;3.42;;;9.50;99.90;;;;;;4959803;28;20172;-81
2024/01/28 12:33:35;;;;;;;3.15;2.78;;;;;;;;;;4960741;28;20180;-80
2024/01/28 12:36:01;;;;;;;12.70;3.40;;;;;;;;;;4946710;28;20234;-83
2024/01/28 12:38:27;;;;;;;4.45;3.03;;;9.30;99.90;;;;;;4962275;28;20474;-82
2024/01/28 12:40:52;;;;;;;4.90;2.20;;;9.30;99.90;;;;;;4961569;28;20640;-84
2024/01/28 12:43:18;;;;;;;2.77;2.57;;;;;;;;;;4961005;28;20659;-81
2024/01/28 12:45:44;;;;;;;5.20;3.17;;;;;;;;;;4962153;28;20271;-82
2024/01/28 12:48:09;;;;;;;4.23;3.03;;;9.30;99.90;;;;;;4965481;28;20566;-81
2024/01/28 12:50:35;;;;;;;7.37;3.33;;;9.30;99.90;;;;;;4960380;28;20834;-82
2024/01/28 12:53:01;;;;;;;5.03;3.00;;;;;;;;;;4937074;28;20246;-81
2024/01/28 12:55:27;;;;;;;7.20;3.03;;;;;;;;;;4941735;28;20266;-85
2024/01/28 12:57:53;;;;;;;4.73;2.80;;;;;;;;;;4962210;28;20928;-83
2024/01/28 13:00:18;;;;;;;6.13;3.73;;;9.30;99.90;;;;;;4960875;28;20474;-83
2024/01/28 13:02:44;;;;;;;5.87;3.10;;;9.50;99.90;;;;;;4961839;28;20482;-84
2024/01/28 13:05:11;;;;;;;3.60;2.90;;;;;;;;;;4946248;28;20250;-82
2024/01/28 13:07:37;;;;;;;3.95;2.78;;;9.20;99.90;;;;;;4962757;28;20200;-83
2024/01/28 13:10:03;;;;;;;5.37;2.47;;;;;;;;;;4942863;28;20190;-81
2024/01/28 13:12:33;;;;;;;2.45;2.25;;;9.10;99.90;;;;;;4954740;28;20274;-82
2024/01/28 13:14:59;;;;;;;5.07;3.60;;;;;;;;;;4964860;28;20207;-84
2024/01/28 13:17:27;;;;;;;3.58;2.70;;;9.00;99.90;;;;;;4960125;28;20204;-83
2024/01/28 13:19:53;;;;;;;2.97;2.78;;;9.00;99.90;;;;;;4948054;28;20247;-83
2024/01/28 13:22:19;;;;;;;5.03;3.65;;;8.90;99.90;;;;;;4963058;28;20513;-82
2024/01/28 13:24:46;;;;;;;2.47;1.80;;;9.00;99.90;;;;;;4954617;28;20238;-83
2024/01/28 13:27:11;;;;;;;2.47;2.28;;;9.20;99.90;;;;;;4940991;28;20994;-81
2024/01/28 13:29:39;;;;;;;7.27;3.37;;;;;;;;;;4959932;28;20199;-81
2024/01/28 13:32:06;;;;;;;3.28;2.45;;;9.60;99.90;;;;;;4947733;28;20431;-82
2024/01/28 13:34:34;;;;;;;2.53;2.22;;;9.80;99.90;;;;;;4963049;28;20194;-83
2024/01/28 13:37:00;;;;;;;2.45;1.67;;;;;;;;;;4939145;28;20562;-82
2024/01/28 13:39:26;;;;;;;2.60;1.95;;;10.00;99.90;;;;;;4945717;28;20211;-82
2024/01/28 13:41:51;;;;;;;6.17;3.00;;;10.20;99.90;;;;;;4959172;28;20557;-82
2024/01/28 13:44:17;;;;;;;7.60;3.27;;;10.20;99.90;;;;;;4938077;28;20545;-82
2024/01/28 13:46:42;;;;;;;2.90;2.63;;;10.30;99.90;;;;;;4957468;28;20236;-83
2024/01/28 13:49:08;;;;;;;5.07;2.90;;;10.20;99.90;;;;;;4947043;28;20207;-84
2024/01/28 13:51:33;;;;;;;6.47;3.40;;;10.20;99.90;;;;;;4947941;28;20829;-82
2024/01/28 13:53:59;;;;;;;4.47;2.67;;;10.30;99.90;;;;;;4967727;28;20873;-81
2024/01/28 13:56:25;;;;;;;3.30;2.53;;;;;;;;;;4964946;28;20323;-80
2024/01/28 13:58:52;;;;;;;3.90;2.20;;;10.00;99.90;;;;;;4956574;28;20223;-86
2024/01/28 14:01:18;;;;;;;4.90;2.80;;;10.00;99.90;;;;;;4962691;28;20478;-84
2024/01/28 14:03:44;;;;;;;3.60;2.37;;;9.80;99.90;;;;;;4943513;28;20196;-82
2024/01/28 14:06:10;;;;;;;4.65;3.58;;;;;;;;;;4950384;28;21048;-81
2024/01/28 14:08:37;;;;;;;4.43;2.70;;;;;;;;;;4957784;28;20188;-79